createdAt,value
2018-08-31T00:01:09.316Z,95.14
2018-08-31T00:04:49.580Z,94.30
2018-08-31T00:07:30.256Z,95.48
2018-08-31T00:12:12.421Z,93.54
2018-08-31T00:14:39.785Z,94.28
2018-08-31T00:17:06.979Z,94.14
2018-08-31T00:19:34.256Z,94.71
2018-08-31T00:22:01.572Z,94.33
2018-08-31T00:24:40.131Z,94.42
2018-08-31T00:27:18.855Z,94.28
2018-08-31T00:29:57.817Z,93.64
2018-08-31T00:33:01.619Z,95.74
2018-08-31T00:35:40.493Z,94.30
2018-08-31T00:39:23.705Z,94.30
2018-08-31T00:42:04.735Z,94.99
2018-08-31T00:45:37.588Z,95.11
2018-08-31T00:48:05.492Z,95.26
2018-08-31T00:50:33.086Z,94.71
2018-08-31T00:53:00.859Z,95.03
2018-08-31T00:55:28.296Z,95.27
2018-08-31T00:57:55.520Z,95.02
2018-08-31T01:00:22.725Z,94.97
2018-08-31T01:02:49.931Z,95.04
2018-08-31T01:05:17.581Z,95.65
2018-08-31T01:07:44.919Z,94.95
2018-08-31T01:10:12.383Z,95.22
2018-08-31T01:12:39.909Z,95.60
2018-08-31T01:15:07.691Z,95.76
2018-08-31T01:17:35.008Z,95.32
2018-08-31T01:20:02.190Z,95.28
2018-08-31T01:22:29.388Z,95.63
2018-08-31T01:24:56.631Z,96.46
2018-08-31T01:27:23.822Z,94.91
2018-08-31T01:29:51.086Z,95.19
2018-08-31T01:32:18.445Z,95.98
2018-08-31T01:34:45.581Z,95.55
2018-08-31T01:37:12.814Z,95.57
2018-08-31T01:39:40.434Z,95.38
2018-08-31T01:42:07.796Z,95.93
2018-08-31T01:44:35.020Z,94.84
2018-08-31T01:47:02.564Z,95.10
2018-08-31T01:49:29.745Z,94.43
2018-08-31T01:51:56.965Z,95.43
2018-08-31T01:54:24.271Z,95.34
2018-08-31T01:56:51.789Z,94.88
2018-08-31T01:59:19.117Z,95.21
2018-08-31T02:01:46.292Z,95.61
2018-08-31T02:04:13.443Z,95.27
2018-08-31T02:06:41.514Z,95.77
2018-08-31T02:09:14.528Z,96.06
2018-08-31T02:11:41.840Z,96.21
2018-08-31T02:14:09.095Z,95.12
2018-08-31T02:16:36.468Z,95.47
2018-08-31T02:19:03.916Z,97.00
2018-08-31T02:21:36.781Z,97.13
2018-08-31T02:24:04.089Z,95.54
2018-08-31T02:26:31.232Z,96.46
2018-08-31T02:28:58.494Z,96.45
2018-08-31T02:31:25.739Z,97.75
2018-08-31T02:33:53.665Z,97.52
2018-08-31T02:36:20.888Z,97.67
2018-08-31T02:38:48.019Z,97.30
2018-08-31T02:41:15.671Z,97.99
2018-08-31T02:43:43.698Z,97.21
2018-08-31T02:46:10.992Z,98.62
2018-08-31T02:48:38.216Z,98.12
2018-08-31T02:51:05.561Z,97.34
2018-08-31T02:53:32.847Z,97.81
2018-08-31T02:56:01.025Z,98.59
2018-08-31T02:58:28.229Z,98.04
2018-08-31T03:00:55.476Z,99.75
2018-08-31T03:03:22.825Z,99.76
2018-08-31T03:05:50.189Z,100.00
2018-08-31T03:08:17.475Z,99.23
2018-08-31T03:10:45.053Z,99.88
2018-08-31T03:13:12.254Z,100.00
2018-08-31T03:15:39.424Z,100.00
2018-08-31T03:18:06.616Z,100.00
2018-08-31T03:20:33.924Z,100.00
2018-08-31T03:23:01.102Z,100.00
2018-08-31T03:25:28.796Z,100.00
2018-08-31T03:27:58.430Z,100.00
2018-08-31T03:30:25.631Z,100.00
2018-08-31T03:32:53.029Z,100.00
2018-08-31T03:35:20.201Z,100.00
2018-08-31T03:37:47.413Z,100.00
2018-08-31T03:40:15.629Z,100.00
2018-08-31T03:42:42.812Z,100.00
2018-08-31T03:45:10.071Z,100.00
2018-08-31T03:47:37.524Z,100.00
2018-08-31T03:50:05.001Z,100.00
2018-08-31T03:52:32.205Z,100.00
2018-08-31T03:54:59.445Z,100.00
2018-08-31T03:57:26.917Z,100.00
2018-08-31T03:59:54.120Z,100.00
2018-08-31T04:02:21.312Z,100.00
2018-08-31T04:04:48.530Z,100.00
2018-08-31T04:07:15.773Z,100.00
2018-08-31T04:09:42.975Z,100.00
2018-08-31T04:12:10.165Z,100.00
2018-08-31T04:14:38.100Z,100.00
2018-08-31T04:17:05.887Z,100.00
2018-08-31T04:19:33.132Z,100.00
2018-08-31T04:22:00.750Z,100.00
2018-08-31T04:24:27.992Z,100.00
2018-08-31T04:26:55.376Z,100.00
2018-08-31T04:29:22.634Z,100.00
2018-08-31T04:31:49.903Z,100.00
2018-08-31T04:34:17.576Z,100.00
2018-08-31T04:36:44.879Z,100.00
2018-08-31T04:39:13.088Z,100.00
2018-08-31T04:41:42.001Z,100.00
2018-08-31T04:44:09.681Z,100.00
2018-08-31T04:46:37.265Z,100.00
2018-08-31T04:49:04.784Z,100.00
2018-08-31T04:51:32.329Z,100.00
2018-08-31T04:53:59.806Z,100.00
2018-08-31T04:56:27.498Z,100.00
2018-08-31T04:58:54.928Z,100.00
2018-08-31T05:01:22.335Z,100.00
2018-08-31T05:03:49.712Z,100.00
2018-08-31T05:06:17.065Z,100.00
2018-08-31T05:08:45.333Z,100.00
2018-08-31T05:11:12.832Z,100.00
2018-08-31T05:13:40.552Z,100.00
2018-08-31T05:16:07.775Z,100.00
2018-08-31T05:18:35.193Z,100.00
2018-08-31T05:21:05.875Z,100.00
2018-08-31T05:23:33.095Z,100.00
2018-08-31T05:26:00.349Z,99.38
2018-08-31T05:28:27.537Z,99.48
2018-08-31T05:30:55.393Z,100.00
2018-08-31T05:33:22.593Z,97.59
2018-08-31T05:35:50.728Z,97.62
2018-08-31T05:38:17.939Z,98.10
2018-08-31T05:40:45.133Z,96.43
2018-08-31T05:43:12.338Z,96.04
2018-08-31T05:45:39.492Z,95.78
2018-08-31T05:48:06.800Z,95.78
2018-08-31T05:50:33.990Z,94.98
2018-08-31T05:53:01.212Z,94.73
2018-08-31T05:55:28.473Z,94.19
2018-08-31T05:57:55.601Z,94.63
2018-08-31T06:00:22.940Z,94.45
2018-08-31T06:02:50.153Z,94.22
2018-08-31T06:05:17.283Z,93.01
2018-08-31T06:07:44.690Z,93.23
2018-08-31T06:10:12.133Z,94.87
2018-08-31T06:12:39.433Z,94.19
2018-08-31T06:15:06.660Z,94.14
2018-08-31T06:17:33.890Z,93.61
2018-08-31T06:20:01.105Z,92.98
2018-08-31T06:22:28.204Z,92.32
2018-08-31T06:24:55.516Z,91.01
2018-08-31T06:27:23.278Z,89.84
2018-08-31T06:29:50.783Z,89.19
2018-08-31T06:32:18.012Z,88.33
2018-08-31T06:34:45.316Z,88.33
2018-08-31T06:37:12.537Z,85.48
2018-08-31T06:39:39.884Z,85.62
2018-08-31T06:42:07.015Z,85.60
2018-08-31T06:44:34.541Z,85.22
2018-08-31T06:47:01.774Z,84.62
2018-08-31T06:49:29.231Z,83.44
2018-08-31T06:51:56.411Z,83.24
2018-08-31T06:56:53.289Z,83.34
2018-08-31T06:59:20.540Z,83.05
2018-08-31T07:01:47.838Z,83.60
2018-08-31T07:04:15.113Z,84.48
2018-08-31T07:06:42.592Z,83.87
2018-08-31T07:09:10.880Z,83.52
2018-08-31T07:11:38.079Z,83.58
2018-08-31T07:14:05.643Z,82.44
2018-08-31T07:16:32.785Z,82.40
2018-08-31T07:19:01.037Z,81.52
2018-08-31T07:21:28.211Z,82.40
2018-08-31T07:23:55.986Z,81.90
2018-08-31T07:26:23.467Z,81.14
2018-08-31T07:28:50.807Z,81.16
2018-08-31T07:31:17.959Z,80.37
2018-08-31T07:33:45.159Z,82.12
2018-08-31T07:36:12.962Z,78.68
2018-08-31T07:38:40.284Z,79.65
2018-08-31T07:41:07.446Z,79.61
2018-08-31T07:43:34.585Z,79.28
2018-08-31T07:46:01.746Z,80.00
2018-08-31T07:48:28.936Z,79.61
2018-08-31T07:50:56.280Z,78.92
2018-08-31T07:53:25.440Z,77.58
2018-08-31T07:55:52.681Z,77.83
2018-08-31T07:58:19.950Z,76.54
2018-08-31T08:00:47.245Z,77.75
2018-08-31T08:03:14.705Z,76.71
2018-08-31T08:05:41.827Z,76.82
2018-08-31T08:08:08.968Z,77.36
2018-08-31T08:10:36.264Z,78.07
2018-08-31T08:13:03.426Z,78.26
2018-08-31T08:15:37.666Z,78.15
2018-08-31T08:18:04.788Z,76.13
2018-08-31T08:20:31.900Z,81.34
2018-08-31T08:22:59.108Z,75.45
2018-08-31T08:25:26.260Z,73.23
2018-08-31T08:27:53.545Z,74.14
2018-08-31T08:30:20.731Z,74.53
2018-08-31T08:32:52.356Z,71.45
2018-08-31T08:35:19.824Z,70.64
2018-08-31T08:37:47.031Z,70.16
2018-08-31T08:40:14.351Z,69.35
2018-08-31T08:42:41.565Z,69.04
2018-08-31T08:45:08.717Z,70.04
2018-08-31T08:47:35.976Z,69.55
2018-08-31T08:50:03.157Z,68.09
2018-08-31T08:52:30.364Z,67.88
2018-08-31T08:54:57.628Z,68.41
2018-08-31T08:57:24.809Z,69.20
2018-08-31T08:59:52.186Z,68.75
2018-08-31T09:02:19.310Z,68.27
2018-08-31T09:04:46.709Z,68.27
2018-08-31T09:07:16.027Z,67.77
2018-08-31T09:09:43.429Z,68.92
2018-08-31T09:12:10.713Z,66.87
2018-08-31T09:14:37.899Z,66.18
2018-08-31T09:17:05.264Z,66.37
2018-08-31T09:19:32.426Z,64.93
2018-08-31T09:21:59.672Z,64.96
2018-08-31T09:24:27.176Z,65.17
2018-08-31T09:26:54.417Z,65.65
2018-08-31T09:29:21.698Z,60.97
2018-08-31T09:31:48.897Z,58.89
2018-08-31T09:34:16.100Z,63.51
2018-08-31T09:36:43.309Z,61.70
2018-08-31T09:39:10.456Z,62.86
2018-08-31T09:41:38.902Z,63.38
2018-08-31T09:44:06.119Z,64.22
2018-08-31T09:46:33.261Z,65.78
2018-08-31T09:49:00.483Z,64.88
2018-08-31T09:51:27.664Z,65.49
2018-08-31T09:53:54.890Z,68.14
2018-08-31T09:56:22.032Z,64.57
2018-08-31T09:58:49.176Z,64.40
2018-08-31T10:01:23.144Z,63.82
2018-08-31T10:03:50.338Z,62.58
2018-08-31T10:06:17.574Z,59.96
2018-08-31T10:08:44.985Z,57.96
2018-08-31T10:11:12.358Z,59.04
2018-08-31T10:13:39.584Z,57.35
2018-08-31T10:16:06.837Z,54.61
2018-08-31T10:18:34.062Z,55.61
2018-08-31T10:21:01.175Z,56.88
2018-08-31T10:23:28.363Z,57.49
2018-08-31T10:25:55.549Z,57.58
2018-08-31T10:28:23.197Z,56.16
2018-08-31T10:30:50.480Z,54.45
2018-08-31T10:33:17.698Z,52.21
2018-08-31T10:35:47.099Z,51.13
2018-08-31T10:38:14.465Z,51.22
2018-08-31T10:40:41.661Z,52.01
2018-08-31T10:43:09.977Z,50.57
2018-08-31T10:45:37.743Z,53.09
2018-08-31T10:48:05.007Z,52.21
2018-08-31T10:50:32.291Z,51.93
2018-08-31T10:53:00.498Z,52.94
2018-08-31T10:55:27.790Z,52.64
2018-08-31T10:57:55.035Z,55.01
2018-08-31T11:00:22.334Z,53.45
2018-08-31T11:02:49.563Z,51.17
2018-08-31T11:05:16.873Z,53.10
2018-08-31T11:07:44.239Z,47.79
2018-08-31T11:10:11.417Z,50.28
2018-08-31T11:12:38.752Z,49.35
2018-08-31T11:15:06.113Z,46.24
2018-08-31T11:17:33.284Z,47.50
2018-08-31T11:20:00.572Z,49.19
2018-08-31T11:22:28.105Z,51.32
2018-08-31T11:24:55.410Z,49.41
2018-08-31T11:27:22.697Z,49.78
2018-08-31T11:29:49.855Z,49.57
2018-08-31T11:32:17.080Z,50.06
2018-08-31T11:34:44.247Z,49.56
2018-08-31T11:37:11.504Z,48.47
2018-08-31T11:39:38.702Z,48.55
2018-08-31T11:42:05.903Z,50.64
2018-08-31T11:44:33.191Z,48.27
2018-08-31T11:47:00.382Z,47.23
2018-08-31T11:49:27.504Z,47.40
2018-08-31T11:51:54.728Z,46.26
2018-08-31T11:54:22.904Z,48.31
2018-08-31T11:56:50.107Z,47.16
2018-08-31T11:59:17.253Z,45.73
2018-08-31T12:01:44.449Z,47.09
2018-08-31T12:04:12.273Z,46.93
2018-08-31T12:06:39.459Z,47.19
2018-08-31T12:09:07.429Z,44.52
2018-08-31T12:11:34.579Z,44.59
2018-08-31T12:14:01.760Z,46.17
2018-08-31T12:16:29.454Z,47.33
2018-08-31T12:18:56.584Z,48.14
2018-08-31T12:21:24.664Z,46.42
2018-08-31T12:23:51.837Z,48.25
2018-08-31T12:26:18.999Z,48.59
2018-08-31T12:28:46.376Z,46.90
2018-08-31T12:31:13.571Z,49.22
2018-08-31T12:33:44.560Z,48.30
2018-08-31T12:36:11.748Z,46.50
2018-08-31T12:38:38.862Z,45.50
2018-08-31T12:41:06.063Z,44.89
2018-08-31T12:43:33.294Z,46.19
2018-08-31T12:46:00.513Z,46.48
2018-08-31T12:48:27.656Z,45.87
2018-08-31T12:50:54.825Z,47.44
2018-08-31T12:53:24.377Z,46.60
2018-08-31T12:55:51.498Z,45.79
2018-08-31T12:58:18.754Z,45.44
2018-08-31T13:00:45.923Z,44.20
2018-08-31T13:03:13.558Z,44.94
2018-08-31T13:05:40.991Z,43.43
2018-08-31T13:08:08.278Z,41.49
2018-08-31T13:10:35.536Z,38.99
2018-08-31T13:13:02.711Z,39.31
2018-08-31T13:15:29.831Z,40.53
2018-08-31T13:17:58.541Z,40.53
2018-08-31T13:20:26.653Z,40.72
2018-08-31T13:22:58.290Z,42.73
2018-08-31T13:25:25.486Z,41.20
2018-08-31T13:27:52.673Z,40.42
2018-08-31T13:30:19.847Z,40.26
2018-08-31T13:32:47.032Z,40.91
2018-08-31T13:35:14.263Z,41.66
2018-08-31T13:37:41.404Z,41.73
2018-08-31T13:40:08.553Z,41.92
2018-08-31T13:42:36.870Z,43.03
2018-08-31T13:45:04.113Z,42.23
2018-08-31T13:47:31.354Z,43.15
2018-08-31T13:49:58.550Z,40.75
2018-08-31T13:52:25.771Z,41.46
2018-08-31T13:54:53.314Z,39.86
2018-08-31T13:57:20.789Z,42.07
2018-08-31T13:59:48.073Z,42.22
2018-08-31T14:02:15.718Z,42.21
2018-08-31T14:04:42.880Z,43.39
2018-08-31T14:07:11.486Z,42.00
2018-08-31T14:09:38.653Z,40.67
2018-08-31T14:12:06.090Z,42.96
2018-08-31T14:14:33.239Z,42.09
2018-08-31T14:17:00.516Z,41.16
2018-08-31T14:19:27.847Z,41.74
2018-08-31T14:21:55.000Z,41.29
2018-08-31T14:24:22.418Z,42.02
2018-08-31T14:26:49.586Z,40.64
2018-08-31T14:46:33.057Z,42.98
2018-08-31T14:49:00.272Z,41.74
2018-08-31T14:51:27.452Z,40.97
2018-08-31T14:53:54.579Z,41.26
2018-08-31T14:56:22.001Z,39.72
2018-08-31T15:16:04.937Z,40.53
2018-08-31T15:18:32.162Z,40.35
2018-08-31T15:20:59.524Z,39.87
2018-08-31T15:23:27.057Z,39.21
2018-08-31T15:25:54.364Z,39.81
2018-08-31T15:28:21.504Z,40.55
2018-08-31T15:30:48.706Z,40.66
2018-08-31T15:33:16.559Z,41.02
2018-08-31T15:53:00.860Z,40.71
2018-08-31T16:12:45.137Z,41.52
2018-08-31T16:15:13.539Z,41.16
2018-08-31T16:34:56.533Z,41.12
2018-08-31T16:54:40.438Z,46.56
2018-08-31T16:57:07.611Z,43.78
2018-08-31T17:16:50.338Z,46.02
2018-08-31T17:19:17.457Z,44.59
2018-08-31T17:21:45.541Z,44.59
2018-08-31T17:41:42.488Z,49.24
2018-08-31T17:44:09.651Z,45.73
2018-08-31T18:00:59.973Z,53.92
2018-08-31T18:03:27.118Z,56.07
2018-08-31T18:05:54.304Z,55.07
2018-08-31T18:08:21.419Z,57.66
2018-08-31T18:10:48.560Z,59.44
2018-08-31T18:13:15.664Z,60.31
2018-08-31T18:15:42.846Z,59.70
2018-08-31T18:18:11.391Z,59.99
2018-08-31T18:20:41.644Z,60.17
2018-08-31T18:23:12.703Z,61.52
2018-08-31T18:25:39.937Z,61.20
2018-08-31T18:28:07.562Z,61.96
2018-08-31T18:30:35.099Z,61.91
2018-08-31T18:33:02.252Z,62.96
2018-08-31T18:35:29.417Z,59.47
2018-08-31T18:37:56.541Z,62.47
2018-08-31T18:40:23.764Z,63.83
2018-08-31T18:42:51.077Z,63.95
2018-08-31T18:45:18.265Z,63.70
2018-08-31T18:47:45.687Z,65.01
2018-08-31T18:50:12.824Z,64.59
2018-08-31T18:52:42.073Z,64.72
2018-08-31T18:55:09.291Z,66.03
2018-08-31T18:57:36.470Z,65.95
2018-08-31T19:00:03.979Z,66.36
2018-08-31T19:02:31.110Z,66.26
2018-08-31T19:04:58.261Z,65.64
2018-08-31T19:07:25.525Z,66.80
2018-08-31T19:09:52.653Z,66.57
2018-08-31T19:12:19.833Z,67.69
2018-08-31T19:14:46.993Z,67.35
2018-08-31T19:17:15.221Z,67.05
2018-08-31T19:19:42.435Z,68.28
2018-08-31T19:22:09.621Z,70.20
2018-08-31T19:24:36.727Z,69.10
2018-08-31T19:27:03.887Z,70.01
2018-08-31T19:29:31.181Z,70.54
2018-08-31T19:31:58.380Z,69.96
2018-08-31T19:34:25.593Z,70.73
2018-08-31T19:36:52.833Z,72.28
2018-08-31T19:39:20.168Z,72.76
2018-08-31T19:41:47.288Z,70.75
2018-08-31T19:44:15.885Z,71.57
2018-08-31T19:46:43.046Z,72.77
2018-08-31T19:49:10.172Z,72.80
2018-08-31T19:51:37.450Z,69.82
2018-08-31T19:54:04.685Z,70.28
2018-08-31T19:56:37.546Z,71.49
2018-08-31T19:59:05.074Z,69.74
2018-08-31T20:01:33.413Z,67.90
2018-08-31T20:04:01.364Z,69.13
2018-08-31T20:06:28.876Z,70.21
2018-08-31T20:08:56.853Z,71.44
2018-08-31T20:11:24.133Z,71.42
2018-08-31T20:13:51.538Z,71.75
2018-08-31T20:16:18.850Z,71.20
2018-08-31T20:18:46.073Z,70.44
2018-08-31T20:21:14.155Z,70.56
2018-08-31T20:23:43.262Z,72.60
2018-08-31T20:26:10.458Z,71.82
2018-08-31T20:28:38.056Z,74.01
2018-08-31T20:31:05.754Z,75.66
2018-08-31T20:33:33.030Z,77.04
2018-08-31T20:36:00.341Z,76.65
2018-08-31T20:38:27.482Z,75.80
2018-08-31T20:40:54.613Z,77.31
2018-08-31T20:43:21.818Z,78.31
2018-08-31T20:45:48.947Z,78.70
2018-08-31T20:48:16.071Z,78.59
2018-08-31T20:50:44.037Z,77.84
2018-08-31T20:53:12.288Z,77.41
2018-08-31T20:55:39.995Z,77.29
2018-08-31T20:58:07.324Z,77.16
2018-08-31T21:00:34.506Z,77.29
2018-08-31T21:03:02.507Z,77.47
2018-08-31T21:05:29.653Z,78.57
2018-08-31T21:07:56.875Z,80.64
2018-08-31T21:10:24.075Z,80.81
2018-08-31T21:12:53.330Z,79.84
2018-08-31T21:15:20.434Z,79.51
2018-08-31T21:17:48.273Z,80.70
2018-08-31T21:20:15.388Z,81.04
2018-08-31T21:22:42.596Z,81.46
2018-08-31T21:25:09.779Z,81.38
2018-08-31T21:27:37.249Z,82.51
2018-08-31T21:30:04.651Z,81.43
2018-08-31T21:32:31.914Z,80.64
2018-08-31T21:34:59.189Z,81.75
2018-08-31T21:37:26.350Z,80.77
2018-08-31T21:39:53.528Z,81.24
2018-08-31T21:42:20.651Z,81.80
2018-08-31T21:44:47.785Z,80.80
2018-08-31T21:47:15.023Z,81.28
2018-08-31T21:49:42.156Z,81.74
2018-08-31T21:52:09.292Z,81.38
2018-08-31T21:54:36.525Z,82.17
2018-08-31T21:57:03.680Z,83.44
2018-08-31T21:59:30.881Z,83.58
2018-08-31T22:01:58.029Z,83.89
2018-08-31T22:04:25.174Z,84.89
2018-08-31T22:06:52.365Z,82.38
2018-08-31T22:09:19.567Z,82.66
2018-08-31T22:11:46.795Z,83.21
2018-08-31T22:14:13.894Z,85.09
2018-08-31T22:16:41.034Z,83.91
2018-08-31T22:19:08.147Z,81.75
2018-08-31T22:21:35.311Z,82.18
2018-08-31T22:24:02.553Z,83.28
2018-08-31T22:26:29.668Z,83.98
2018-08-31T22:28:56.772Z,84.40
2018-08-31T22:31:23.945Z,84.92
2018-08-31T22:33:51.048Z,84.75
2018-08-31T22:36:18.261Z,85.14
2018-08-31T22:38:45.472Z,84.92
2018-08-31T22:41:12.578Z,85.74
2018-08-31T22:43:45.391Z,85.35
2018-08-31T22:46:12.559Z,85.85
2018-08-31T22:48:39.765Z,86.34
2018-08-31T22:51:06.983Z,86.86
2018-08-31T22:53:34.098Z,87.23
2018-08-31T22:56:01.200Z,87.85
2018-08-31T22:58:28.336Z,87.53
2018-08-31T23:00:55.510Z,87.33
2018-08-31T23:03:22.599Z,84.83
2018-08-31T23:05:49.763Z,82.10
2018-08-31T23:08:16.906Z,81.16
2018-08-31T23:10:44.016Z,83.39
2018-08-31T23:13:11.262Z,81.28
2018-08-31T23:15:38.385Z,81.97
2018-08-31T23:18:05.501Z,80.03
2018-08-31T23:20:32.676Z,84.87
2018-08-31T23:24:08.077Z,85.90
2018-08-31T23:26:35.300Z,82.79
2018-08-31T23:29:02.429Z,84.93
2018-08-31T23:31:29.549Z,85.85
2018-08-31T23:33:56.703Z,82.72
2018-08-31T23:36:23.826Z,84.78
2018-08-31T23:38:51.018Z,81.97
2018-08-31T23:41:18.442Z,80.52
2018-08-31T23:43:45.563Z,82.12
2018-08-31T23:46:12.683Z,80.92
2018-08-31T23:48:39.860Z,80.41
2018-08-31T23:51:07.066Z,79.75
2018-08-31T23:53:34.192Z,80.59
2018-08-31T23:56:01.362Z,80.48
2018-08-31T23:58:28.485Z,83.76
